sensor_id;sensor_type;location;lat;lon;timestamp;pressure;altitude;pressure_sealevel;temperature;humidity
23321;BME280;33376;51.306;4.752;2023-04-25T00:02:24;101148.41;;;6.08;nan
23321;BME280;33376;51.306;4.752;2023-04-25T00:04:49;101146.72;;;6.05;nan
23321;BME280;33376;51.306;4.752;2023-04-25T00:07:15;101145.94;;;6.03;nan
23321;BME280;33376;51.306;4.752;2023-04-25T00:09:41;101149.25;;;6.08;nan
23321;BME280;33376;51.306;4.752;2023-04-25T00:12:06;101146.97;;;5.97;nan
23321;BME280;33376;51.306;4.752;2023-04-25T00:14:31;101153.41;;;5.87;nan
23321;BME280;33376;51.306;4.752;2023-04-25T00:16:59;101149.94;;;5.87;nan
23321;BME280;33376;51.306;4.752;2023-04-25T00:19:24;101150.94;;;5.83;nan
23321;BME280;33376;51.306;4.752;2023-04-25T00:21:51;101150.47;;;5.69;nan
23321;BME280;33376;51.306;4.752;2023-04-25T00:24:17;101148.91;;;5.62;nan
23321;BME280;33376;51.306;4.752;2023-04-25T00:26:42;101153.13;;;5.67;nan
23321;BME280;33376;51.306;4.752;2023-04-25T00:29:07;101153.28;;;5.63;nan
23321;BME280;33376;51.306;4.752;2023-04-25T00:31:32;101155.09;;;5.61;nan
23321;BME280;33376;51.306;4.752;2023-04-25T00:33:58;101151.53;;;5.62;nan
23321;BME280;33376;51.306;4.752;2023-04-25T00:36:23;101156.75;;;5.63;nan
23321;BME280;33376;51.306;4.752;2023-04-25T00:38:48;101144.84;;;5.52;nan
23321;BME280;33376;51.306;4.752;2023-04-25T00:41:14;101152.41;;;5.62;nan
23321;BME280;33376;51.306;4.752;2023-04-25T00:43:39;101143.59;;;5.63;nan
23321;BME280;33376;51.306;4.752;2023-04-25T00:46:05;101140.28;;;5.58;nan
23321;BME280;33376;51.306;4.752;2023-04-25T00:48:30;101130.41;;;5.65;nan
23321;BME280;33376;51.306;4.752;2023-04-25T00:50:58;101135.72;;;5.63;nan
23321;BME280;33376;51.306;4.752;2023-04-25T00:53:25;101136.00;;;5.54;nan
23321;BME280;33376;51.306;4.752;2023-04-25T00:55:51;101134.03;;;5.61;nan
23321;BME280;33376;51.306;4.752;2023-04-25T00:58:17;101135.81;;;5.60;nan
23321;BME280;33376;51.306;4.752;2023-04-25T01:00:43;101129.91;;;5.52;nan
23321;BME280;33376;51.306;4.752;2023-04-25T01:03:08;101132.69;;;5.48;nan
23321;BME280;33376;51.306;4.752;2023-04-25T01:05:35;101134.22;;;5.55;nan
23321;BME280;33376;51.306;4.752;2023-04-25T01:08:00;101129.22;;;5.46;nan
23321;BME280;33376;51.306;4.752;2023-04-25T01:10:26;101120.88;;;5.32;nan
23321;BME280;33376;51.306;4.752;2023-04-25T01:12:51;101116.41;;;5.35;nan
23321;BME280;33376;51.306;4.752;2023-04-25T01:15:16;101116.41;;;5.35;nan
23321;BME280;33376;51.306;4.752;2023-04-25T01:17:42;101119.03;;;5.35;nan
23321;BME280;33376;51.306;4.752;2023-04-25T01:20:09;101112.84;;;5.36;nan
23321;BME280;33376;51.306;4.752;2023-04-25T01:22:34;101114.59;;;5.37;nan
23321;BME280;33376;51.306;4.752;2023-04-25T01:25:00;101107.44;;;5.42;nan
23321;BME280;33376;51.306;4.752;2023-04-25T01:27:25;101110.03;;;5.44;nan
23321;BME280;33376;51.306;4.752;2023-04-25T01:29:50;101101.66;;;5.59;nan
23321;BME280;33376;51.306;4.752;2023-04-25T01:32:16;101104.06;;;5.66;nan
23321;BME280;33376;51.306;4.752;2023-04-25T01:34:42;101104.56;;;5.79;nan
23321;BME280;33376;51.306;4.752;2023-04-25T01:37:07;101101.09;;;5.77;nan
23321;BME280;33376;51.306;4.752;2023-04-25T01:39:32;101096.66;;;5.79;nan
23321;BME280;33376;51.306;4.752;2023-04-25T01:41:58;101099.22;;;5.82;nan
23321;BME280;33376;51.306;4.752;2023-04-25T01:44:24;101102.59;;;5.87;nan
23321;BME280;33376;51.306;4.752;2023-04-25T01:46:49;101101.53;;;5.92;nan
23321;BME280;33376;51.306;4.752;2023-04-25T01:49:14;101102.38;;;5.93;nan
23321;BME280;33376;51.306;4.752;2023-04-25T01:51:39;101095.31;;;5.95;nan
23321;BME280;33376;51.306;4.752;2023-04-25T01:54:05;101103.78;;;6.05;nan
23321;BME280;33376;51.306;4.752;2023-04-25T01:56:31;101096.88;;;6.01;nan
23321;BME280;33376;51.306;4.752;2023-04-25T01:58:57;101100.31;;;6.03;nan
23321;BME280;33376;51.306;4.752;2023-04-25T02:01:22;101094.97;;;6.06;nan
23321;BME280;33376;51.306;4.752;2023-04-25T02:03:47;101094.97;;;6.06;nan
23321;BME280;33376;51.306;4.752;2023-04-25T02:06:13;101100.06;;;6.10;nan
23321;BME280;33376;51.306;4.752;2023-04-25T02:08:38;101095.56;;;6.14;nan
23321;BME280;33376;51.306;4.752;2023-04-25T02:11:03;101098.97;;;6.17;nan
23321;BME280;33376;51.306;4.752;2023-04-25T02:13:29;101096.19;;;6.22;nan
23321;BME280;33376;51.306;4.752;2023-04-25T02:15:54;101097.78;;;6.26;nan
23321;BME280;33376;51.306;4.752;2023-04-25T02:18:19;101102.00;;;6.31;nan
23321;BME280;33376;51.306;4.752;2023-04-25T02:20:46;101090.44;;;6.35;nan
23321;BME280;33376;51.306;4.752;2023-04-25T02:23:11;101104.22;;;6.43;nan
23321;BME280;33376;51.306;4.752;2023-04-25T02:25:36;101100.91;;;6.38;nan
23321;BME280;33376;51.306;4.752;2023-04-25T02:28:02;101101.69;;;6.40;nan
23321;BME280;33376;51.306;4.752;2023-04-25T02:30:27;101099.00;;;6.42;nan
23321;BME280;33376;51.306;4.752;2023-04-25T02:32:52;101091.91;;;6.44;nan
23321;BME280;33376;51.306;4.752;2023-04-25T02:35:18;101089.34;;;6.42;nan
23321;BME280;33376;51.306;4.752;2023-04-25T02:37:43;101087.53;;;6.44;nan
23321;BME280;33376;51.306;4.752;2023-04-25T02:40:08;101077.03;;;6.43;nan
23321;BME280;33376;51.306;4.752;2023-04-25T02:42:34;101081.38;;;6.44;nan
23321;BME280;33376;51.306;4.752;2023-04-25T02:45:00;101091.91;;;6.44;nan
23321;BME280;33376;51.306;4.752;2023-04-25T02:47:25;101080.56;;;6.42;nan
23321;BME280;33376;51.306;4.752;2023-04-25T02:49:50;101088.63;;;6.37;nan
23321;BME280;33376;51.306;4.752;2023-04-25T02:52:15;101092.03;;;6.41;nan
23321;BME280;33376;51.306;4.752;2023-04-25T02:54:41;101085.88;;;6.40;nan
23321;BME280;33376;51.306;4.752;2023-04-25T02:57:06;101091.09;;;6.42;nan
23321;BME280;33376;51.306;4.752;2023-04-25T02:59:32;101084.19;;;6.39;nan
23321;BME280;33376;51.306;4.752;2023-04-25T03:01:57;101094.78;;;6.38;nan
23321;BME280;33376;51.306;4.752;2023-04-25T03:04:22;101083.41;;;6.36;nan
23321;BME280;33376;51.306;4.752;2023-04-25T03:06:49;101088.69;;;6.36;nan
23321;BME280;33376;51.306;4.752;2023-04-25T03:09:15;101086.97;;;6.35;nan
23321;BME280;33376;51.306;4.752;2023-04-25T03:11:40;101085.34;;;6.31;nan
23321;BME280;33376;51.306;4.752;2023-04-25T03:14:05;101088.06;;;6.28;nan
23321;BME280;33376;51.306;4.752;2023-04-25T03:16:31;101096.06;;;6.25;nan
23321;BME280;33376;51.306;4.752;2023-04-25T03:18:56;101090.91;;;6.22;nan
23321;BME280;33376;51.306;4.752;2023-04-25T03:21:21;101093.34;;;6.28;nan
23321;BME280;33376;51.306;4.752;2023-04-25T03:23:47;101086.47;;;6.24;nan
23321;BME280;33376;51.306;4.752;2023-04-25T03:26:12;101093.44;;;6.25;nan
23321;BME280;33376;51.306;4.752;2023-04-25T03:28:37;101086.53;;;6.22;nan
23321;BME280;33376;51.306;4.752;2023-04-25T03:31:03;101086.53;;;6.22;nan
23321;BME280;33376;51.306;4.752;2023-04-25T03:33:28;101084.88;;;6.18;nan
23321;BME280;33376;51.306;4.752;2023-04-25T03:35:53;101087.72;;;6.12;nan
23321;BME280;33376;51.306;4.752;2023-04-25T03:38:19;101082.72;;;6.05;nan
23321;BME280;33376;51.306;4.752;2023-04-25T03:40:45;101082.94;;;5.97;nan
23321;BME280;33376;51.306;4.752;2023-04-25T03:43:10;101083.88;;;5.96;nan
23321;BME280;33376;51.306;4.752;2023-04-25T03:45:38;101092.84;;;5.89;nan
23321;BME280;33376;51.306;4.752;2023-04-25T03:48:04;101090.22;;;5.89;nan
23321;BME280;33376;51.306;4.752;2023-04-25T03:50:29;101097.38;;;5.85;nan
23321;BME280;33376;51.306;4.752;2023-04-25T03:52:54;101096.59;;;5.82;nan
23321;BME280;33376;51.306;4.752;2023-04-25T03:55:20;101100.09;;;5.81;nan
23321;BME280;33376;51.306;4.752;2023-04-25T03:57:46;101098.31;;;5.83;nan
23321;BME280;33376;51.306;4.752;2023-04-25T04:00:12;101099.25;;;5.80;nan
23321;BME280;33376;51.306;4.752;2023-04-25T04:02:38;101099.19;;;5.83;nan
23321;BME280;33376;51.306;4.752;2023-04-25T04:05:04;101100.00;;;5.85;nan
23321;BME280;33376;51.306;4.752;2023-04-25T04:07:29;101097.28;;;5.88;nan
23321;BME280;33376;51.306;4.752;2023-04-25T04:09:54;101105.91;;;5.92;nan
23321;BME280;33376;51.306;4.752;2023-04-25T04:12:20;101104.19;;;5.91;nan
23321;BME280;33376;51.306;4.752;2023-04-25T04:14:45;101108.41;;;5.97;nan
23321;BME280;33376;51.306;4.752;2023-04-25T04:17:10;101111.78;;;6.00;nan
23321;BME280;33376;51.306;4.752;2023-04-25T04:19:35;101095.94;;;6.03;nan
23321;BME280;33376;51.306;4.752;2023-04-25T04:22:01;101110.75;;;6.06;nan
23321;BME280;33376;51.306;4.752;2023-04-25T04:24:26;101115.03;;;6.08;nan
23321;BME280;33376;51.306;4.752;2023-04-25T04:26:51;101110.28;;;6.21;nan
23321;BME280;33376;51.306;4.752;2023-04-25T04:29:17;101111.09;;;6.21;nan
23321;BME280;33376;51.306;4.752;2023-04-25T04:31:49;101098.91;;;6.19;nan
23321;BME280;33376;51.306;4.752;2023-04-25T04:34:14;101106.72;;;6.22;nan
23321;BME280;33376;51.306;4.752;2023-04-25T04:36:41;101112.75;;;6.25;nan
23321;BME280;33376;51.306;4.752;2023-04-25T04:39:06;101112.59;;;6.30;nan
23321;BME280;33376;51.306;4.752;2023-04-25T04:41:32;101115.44;;;6.24;nan
23321;BME280;33376;51.306;4.752;2023-04-25T04:43:57;101111.06;;;6.23;nan
23321;BME280;33376;51.306;4.752;2023-04-25T04:46:22;101118.00;;;6.25;nan
23321;BME280;33376;51.306;4.752;2023-04-25T04:48:49;101117.91;;;6.28;nan
23321;BME280;33376;51.306;4.752;2023-04-25T04:51:16;101123.22;;;6.27;nan
23321;BME280;33376;51.306;4.752;2023-04-25T04:53:47;101124.94;;;6.28;nan
23321;BME280;33376;51.306;4.752;2023-04-25T04:56:12;101128.50;;;6.27;nan
23321;BME280;33376;51.306;4.752;2023-04-25T04:58:38;101139.13;;;6.24;nan
23321;BME280;33376;51.306;4.752;2023-04-25T05:01:03;101130.31;;;6.25;nan
23321;BME280;33376;51.306;4.752;2023-04-25T05:03:28;101133.97;;;6.21;nan
23321;BME280;33376;51.306;4.752;2023-04-25T05:05:53;101135.63;;;6.23;nan
23321;BME280;33376;51.306;4.752;2023-04-25T05:08:19;101145.94;;;6.29;nan
23321;BME280;33376;51.306;4.752;2023-04-25T05:10:44;101151.78;;;6.39;nan
23321;BME280;33376;51.306;4.752;2023-04-25T05:13:09;101146.41;;;6.42;nan
23321;BME280;33376;51.306;4.752;2023-04-25T05:15:34;101146.03;;;6.54;nan
23321;BME280;33376;51.306;4.752;2023-04-25T05:18:00;101153.22;;;6.49;nan
23321;BME280;33376;51.306;4.752;2023-04-25T05:20:26;101156.28;;;6.61;nan
23321;BME280;33376;51.306;4.752;2023-04-25T05:22:51;101151.75;;;6.66;nan
23321;BME280;33376;51.306;4.752;2023-04-25T05:25:17;101139.28;;;6.71;nan
23321;BME280;33376;51.306;4.752;2023-04-25T05:27:42;101143.34;;;6.80;nan
23321;BME280;33376;51.306;4.752;2023-04-25T05:30:07;101142.41;;;6.82;nan
23321;BME280;33376;51.306;4.752;2023-04-25T05:32:33;101141.97;;;6.94;nan
23321;BME280;33376;51.306;4.752;2023-04-25T05:34:59;101141.78;;;6.99;nan
23321;BME280;33376;51.306;4.752;2023-04-25T05:37:24;101141.78;;;6.99;nan
23321;BME280;33376;51.306;4.752;2023-04-25T05:39:50;101134.47;;;7.07;nan
23321;BME280;33376;51.306;4.752;2023-04-25T05:42:15;101137.16;;;7.05;nan
23321;BME280;33376;51.306;4.752;2023-04-25T05:44:40;101135.34;;;7.07;nan
23321;BME280;33376;51.306;4.752;2023-04-25T05:47:05;101138.03;;;7.06;nan
23321;BME280;33376;51.306;4.752;2023-04-25T05:49:31;101138.19;;;7.01;nan
23321;BME280;33376;51.306;4.752;2023-04-25T05:51:56;101142.59;;;7.01;nan
23321;BME280;33376;51.306;4.752;2023-04-25T05:54:21;101138.72;;;7.11;nan
23321;BME280;33376;51.306;4.752;2023-04-25T05:56:47;101137.69;;;7.15;nan
23321;BME280;33376;51.306;4.752;2023-04-25T05:59:12;101140.47;;;7.58;nan
23321;BME280;33376;51.306;4.752;2023-04-25T06:01:37;101130.84;;;8.02;nan
23321;BME280;33376;51.306;4.752;2023-04-25T06:04:02;101130.88;;;8.45;nan
23321;BME280;33376;51.306;4.752;2023-04-25T06:06:28;101128.75;;;8.95;nan
23321;BME280;33376;51.306;4.752;2023-04-25T06:08:53;101148.69;;;8.81;nan
23321;BME280;33376;51.306;4.752;2023-04-25T06:11:19;101152.69;;;8.92;nan
23321;BME280;33376;51.306;4.752;2023-04-25T06:13:45;101161.97;;;9.00;nan
23321;BME280;33376;51.306;4.752;2023-04-25T06:16:10;101183.19;;;8.99;nan
23321;BME280;33376;51.306;4.752;2023-04-25T06:18:36;101207.66;;;8.83;nan
23321;BME280;33376;51.306;4.752;2023-04-25T06:21:01;101235.47;;;8.92;nan
23321;BME280;33376;51.306;4.752;2023-04-25T06:23:26;101260.81;;;8.77;nan
23321;BME280;33376;51.306;4.752;2023-04-25T06:25:51;101276.75;;;8.74;nan
23321;BME280;33376;51.306;4.752;2023-04-25T06:28:17;101317.28;;;8.06;nan
23321;BME280;33376;51.306;4.752;2023-04-25T06:30:42;101341.19;;;7.78;nan
23321;BME280;33376;51.306;4.752;2023-04-25T06:33:07;101358.03;;;7.50;nan
23321;BME280;33376;51.306;4.752;2023-04-25T06:35:33;101361.50;;;7.25;nan
23321;BME280;33376;51.306;4.752;2023-04-25T06:37:59;101373.84;;;7.23;nan
23321;BME280;33376;51.306;4.752;2023-04-25T06:40:24;101377.47;;;6.93;nan
23321;BME280;33376;51.306;4.752;2023-04-25T06:42:50;101390.63;;;6.66;nan
23321;BME280;33376;51.306;4.752;2023-04-25T06:45:15;101411.44;;;6.46;nan
23321;BME280;33376;51.306;4.752;2023-04-25T06:47:40;101392.13;;;6.74;nan
23321;BME280;33376;51.306;4.752;2023-04-25T06:50:06;101400.22;;;6.96;nan
23321;BME280;33376;51.306;4.752;2023-04-25T06:52:31;101392.50;;;6.90;nan
23321;BME280;33376;51.306;4.752;2023-04-25T06:54:56;101371.81;;;7.05;nan
23321;BME280;33376;51.306;4.752;2023-04-25T06:57:21;101376.66;;;7.19;nan
23321;BME280;33376;51.306;4.752;2023-04-25T06:59:47;101354.91;;;7.38;nan
23321;BME280;33376;51.306;4.752;2023-04-25T07:02:12;101347.72;;;7.68;nan
23321;BME280;33376;51.306;4.752;2023-04-25T07:04:37;101361.22;;;7.84;nan
23321;BME280;33376;51.306;4.752;2023-04-25T07:07:02;101371.56;;;8.14;nan
23321;BME280;33376;51.306;4.752;2023-04-25T07:09:28;101380.75;;;8.29;nan
23321;BME280;33376;51.306;4.752;2023-04-25T07:11:54;101389.34;;;8.57;nan
23321;BME280;33376;51.306;4.752;2023-04-25T07:14:21;101394.22;;;8.90;nan
23321;BME280;33376;51.306;4.752;2023-04-25T07:16:47;101405.00;;;9.29;nan
23321;BME280;33376;51.306;4.752;2023-04-25T07:19:12;101429.06;;;9.66;nan
23321;BME280;33376;51.306;4.752;2023-04-25T07:21:37;101458.84;;;9.50;nan
23321;BME280;33376;51.306;4.752;2023-04-25T07:24:02;101486.25;;;9.49;nan
23321;BME280;33376;51.306;4.752;2023-04-25T07:26:28;101491.81;;;10.06;nan
23321;BME280;33376;51.306;4.752;2023-04-25T07:28:53;101510.47;;;10.24;nan
23321;BME280;33376;51.306;4.752;2023-04-25T07:31:19;101522.31;;;10.76;nan
23321;BME280;33376;51.306;4.752;2023-04-25T07:33:45;101524.84;;;10.79;nan
23321;BME280;33376;51.306;4.752;2023-04-25T07:36:10;101544.88;;;10.66;nan
23321;BME280;33376;51.306;4.752;2023-04-25T07:38:36;101559.28;;;10.61;nan
23321;BME280;33376;51.306;4.752;2023-04-25T07:41:01;101577.91;;;10.17;nan
23321;BME280;33376;51.306;4.752;2023-04-25T07:43:26;101588.72;;;9.90;nan
23321;BME280;33376;51.306;4.752;2023-04-25T07:45:52;101614.56;;;10.90;nan
23321;BME280;33376;51.306;4.752;2023-04-25T07:48:17;101602.81;;;11.72;nan
23321;BME280;33376;51.306;4.752;2023-04-25T07:50:43;101599.81;;;12.16;nan
23321;BME280;33376;51.306;4.752;2023-04-25T07:53:09;101585.13;;;11.34;nan
23321;BME280;33376;51.306;4.752;2023-04-25T07:55:34;101592.53;;;11.84;nan
23321;BME280;33376;51.306;4.752;2023-04-25T07:58:01;101546.97;;;12.44;nan
23321;BME280;33376;51.306;4.752;2023-04-25T08:00:28;101529.47;;;13.22;nan
23321;BME280;33376;51.306;4.752;2023-04-25T08:02:54;101523.16;;;14.90;nan
23321;BME280;33376;51.306;4.752;2023-04-25T08:05:19;101429.66;;;13.13;nan
23321;BME280;33376;51.306;4.752;2023-04-25T08:07:44;101413.25;;;13.05;nan
23321;BME280;33376;51.306;4.752;2023-04-25T08:10:10;101433.25;;;13.12;nan
23321;BME280;33376;51.306;4.752;2023-04-25T08:12:35;101437.53;;;12.00;nan
23321;BME280;33376;51.306;4.752;2023-04-25T08:15:00;101473.66;;;11.33;nan
23321;BME280;33376;51.306;4.752;2023-04-25T08:17:26;101527.97;;;10.69;nan
23321;BME280;33376;51.306;4.752;2023-04-25T08:19:51;101598.44;;;10.12;nan
23321;BME280;33376;51.306;4.752;2023-04-25T08:22:16;101691.59;;;10.02;nan
23321;BME280;33376;51.306;4.752;2023-04-25T08:24:41;101765.88;;;8.74;nan
23321;BME280;33376;51.306;4.752;2023-04-25T08:27:07;101832.47;;;7.68;nan
23321;BME280;33376;51.306;4.752;2023-04-25T08:29:32;101851.53;;;7.47;nan
23321;BME280;33376;51.306;4.752;2023-04-25T08:31:58;101878.41;;;7.27;nan
23321;BME280;33376;51.306;4.752;2023-04-25T08:34:23;101875.31;;;7.10;nan
23321;BME280;33376;51.306;4.752;2023-04-25T08:36:50;101861.75;;;6.88;nan
23321;BME280;33376;51.306;4.752;2023-04-25T08:39:15;101863.63;;;6.83;nan
23321;BME280;33376;51.306;4.752;2023-04-25T08:41:41;101830.91;;;6.93;nan
23321;BME280;33376;51.306;4.752;2023-04-25T08:44:06;101792.81;;;7.05;nan
23321;BME280;33376;51.306;4.752;2023-04-25T08:46:34;101772.28;;;7.17;nan
23321;BME280;33376;51.306;4.752;2023-04-25T08:49:02;101754.75;;;7.47;nan
23321;BME280;33376;51.306;4.752;2023-04-25T08:51:29;101757.91;;;7.60;nan
23321;BME280;33376;51.306;4.752;2023-04-25T08:53:55;101746.00;;;7.76;nan
23321;BME280;33376;51.306;4.752;2023-04-25T08:56:21;101758.06;;;7.86;nan
23321;BME280;33376;51.306;4.752;2023-04-25T08:58:48;101759.72;;;7.88;nan
23321;BME280;33376;51.306;4.752;2023-04-25T09:01:14;101770.13;;;7.94;nan
23321;BME280;33376;51.306;4.752;2023-04-25T09:03:39;101768.28;;;7.98;nan
23321;BME280;33376;51.306;4.752;2023-04-25T09:06:05;101765.34;;;8.07;nan
23321;BME280;33376;51.306;4.752;2023-04-25T09:08:30;101763.47;;;8.39;nan
23321;BME280;33376;51.306;4.752;2023-04-25T09:10:55;101750.47;;;8.61;nan
23321;BME280;33376;51.306;4.752;2023-04-25T09:13:25;101758.59;;;8.81;nan
23321;BME280;33376;51.306;4.752;2023-04-25T09:15:51;101737.78;;;9.23;nan
23321;BME280;33376;51.306;4.752;2023-04-25T09:20:50;101725.72;;;9.63;nan
23321;BME280;33376;51.306;4.752;2023-04-25T09:23:16;101717.88;;;9.83;nan
23321;BME280;33376;51.306;4.752;2023-04-25T09:25:44;101703.75;;;9.84;nan
23321;BME280;33376;51.306;4.752;2023-04-25T09:28:11;101686.31;;;10.23;nan
23321;BME280;33376;51.306;4.752;2023-04-25T09:30:37;101666.63;;;11.12;nan
23321;BME280;33376;51.306;4.752;2023-04-25T09:33:06;101657.94;;;11.29;nan
23321;BME280;33376;51.306;4.752;2023-04-25T09:35:35;101685.34;;;10.89;nan
23321;BME280;33376;51.306;4.752;2023-04-25T09:38:00;101721.03;;;11.02;nan
23321;BME280;33376;51.306;4.752;2023-04-25T09:40:25;101739.69;;;11.21;nan
23321;BME280;33376;51.306;4.752;2023-04-25T09:42:51;101748.59;;;11.40;nan
23321;BME280;33376;51.306;4.752;2023-04-25T09:45:16;101758.28;;;11.21;nan
23321;BME280;33376;51.306;4.752;2023-04-25T09:47:41;101765.31;;;11.62;nan
23321;BME280;33376;51.306;4.752;2023-04-25T09:50:15;101785.28;;;10.89;nan
23321;BME280;33376;51.306;4.752;2023-04-25T09:52:41;101799.38;;;11.52;nan
23321;BME280;33376;51.306;4.752;2023-04-25T09:55:06;101816.88;;;11.78;nan
23321;BME280;33376;51.306;4.752;2023-04-25T09:57:32;101800.81;;;11.39;nan
23321;BME280;33376;51.306;4.752;2023-04-25T09:59:57;101806.97;;;11.82;nan
23321;BME280;33376;51.306;4.752;2023-04-25T10:02:25;101811.44;;;10.98;nan
23321;BME280;33376;51.306;4.752;2023-04-25T10:04:52;101827.50;;;10.73;nan
23321;BME280;33376;51.306;4.752;2023-04-25T10:07:19;101797.00;;;11.05;nan
23321;BME280;33376;51.306;4.752;2023-04-25T10:09:49;101819.13;;;11.67;nan
23321;BME280;33376;51.306;4.752;2023-04-25T10:12:17;101783.72;;;11.66;nan
23321;BME280;33376;51.306;4.752;2023-04-25T10:14:43;101729.25;;;11.76;nan
23321;BME280;33376;51.306;4.752;2023-04-25T10:17:10;101705.56;;;11.52;nan
23321;BME280;33376;51.306;4.752;2023-04-25T10:19:36;101743.16;;;11.23;nan
23321;BME280;33376;51.306;4.752;2023-04-25T10:24:30;101763.38;;;10.41;nan
23321;BME280;33376;51.306;4.752;2023-04-25T10:26:55;101814.66;;;9.93;nan
23321;BME280;33376;51.306;4.752;2023-04-25T10:29:24;101842.38;;;9.83;nan
23321;BME280;33376;51.306;4.752;2023-04-25T10:31:50;101874.41;;;10.02;nan
23321;BME280;33376;51.306;4.752;2023-04-25T10:34:16;101886.78;;;10.01;nan
23321;BME280;33376;51.306;4.752;2023-04-25T10:36:42;101869.88;;;10.04;nan
23321;BME280;33376;51.306;4.752;2023-04-25T10:39:07;101876.41;;;10.66;nan
23321;BME280;33376;51.306;4.752;2023-04-25T10:41:46;101858.78;;;10.87;nan
23321;BME280;33376;51.306;4.752;2023-04-25T10:44:13;101847.59;;;10.57;nan
23321;BME280;33376;51.306;4.752;2023-04-25T10:46:38;101803.69;;;10.72;nan
23321;BME280;33376;51.306;4.752;2023-04-25T10:49:04;101817.19;;;11.09;nan
23321;BME280;33376;51.306;4.752;2023-04-25T10:51:33;101766.44;;;11.36;nan
23321;BME280;33376;51.306;4.752;2023-04-25T10:53:59;101730.22;;;11.35;nan
23321;BME280;33376;51.306;4.752;2023-04-25T10:56:25;101660.66;;;12.03;nan
23321;BME280;33376;51.306;4.752;2023-04-25T10:58:51;101641.56;;;12.49;nan
23321;BME280;33376;51.306;4.752;2023-04-25T11:01:20;101627.94;;;11.65;nan
23321;BME280;33376;51.306;4.752;2023-04-25T11:03:45;101615.06;;;11.18;nan
23321;BME280;33376;51.306;4.752;2023-04-25T11:06:18;101641.00;;;10.71;nan
23321;BME280;33376;51.306;4.752;2023-04-25T11:08:49;101659.91;;;10.64;nan
23321;BME280;33376;51.306;4.752;2023-04-25T11:11:15;101681.56;;;11.15;nan
23321;BME280;33376;51.306;4.752;2023-04-25T11:13:41;101660.25;;;12.99;nan
23321;BME280;33376;51.306;4.752;2023-04-25T11:16:07;101605.69;;;14.04;nan
23321;BME280;33376;51.306;4.752;2023-04-25T11:18:33;101526.91;;;13.20;nan
23321;BME280;33376;51.306;4.752;2023-04-25T11:20:59;101498.47;;;12.39;nan
23321;BME280;33376;51.306;4.752;2023-04-25T11:23:24;101522.31;;;12.06;nan
23321;BME280;33376;51.306;4.752;2023-04-25T11:25:51;101449.03;;;12.35;nan
23321;BME280;33376;51.306;4.752;2023-04-25T11:28:20;101430.06;;;12.58;nan
23321;BME280;33376;51.306;4.752;2023-04-25T11:30:49;101339.38;;;13.09;nan
23321;BME280;33376;51.306;4.752;2023-04-25T11:33:17;101317.41;;;13.51;nan
23321;BME280;33376;51.306;4.752;2023-04-25T11:35:43;101245.72;;;14.04;nan
23321;BME280;33376;51.306;4.752;2023-04-25T11:38:08;101229.75;;;15.37;nan
23321;BME280;33376;51.306;4.752;2023-04-25T11:40:34;101126.63;;;15.22;nan
23321;BME280;33376;51.306;4.752;2023-04-25T11:43:00;101142.66;;;15.22;nan
23321;BME280;33376;51.306;4.752;2023-04-25T11:45:26;101283.31;;;13.42;nan
23321;BME280;33376;51.306;4.752;2023-04-25T11:47:51;101356.63;;;12.38;nan
23321;BME280;33376;51.306;4.752;2023-04-25T11:50:16;101401.97;;;12.20;nan
23321;BME280;33376;51.306;4.752;2023-04-25T11:52:45;101467.03;;;12.30;nan
23321;BME280;33376;51.306;4.752;2023-04-25T11:55:15;101450.63;;;12.22;nan
23321;BME280;33376;51.306;4.752;2023-04-25T11:57:41;101460.78;;;12.96;nan
23321;BME280;33376;51.306;4.752;2023-04-25T12:00:10;101432.97;;;12.86;nan
23321;BME280;33376;51.306;4.752;2023-04-25T12:02:36;101421.50;;;14.07;nan
23321;BME280;33376;51.306;4.752;2023-04-25T12:05:01;101380.06;;;14.15;nan
23321;BME280;33376;51.306;4.752;2023-04-25T12:07:31;101299.13;;;13.45;nan
23321;BME280;33376;51.306;4.752;2023-04-25T12:09:56;101311.59;;;14.72;nan
23321;BME280;33376;51.306;4.752;2023-04-25T12:12:21;101174.59;;;13.76;nan
23321;BME280;33376;51.306;4.752;2023-04-25T12:14:51;101106.44;;;13.86;nan
23321;BME280;33376;51.306;4.752;2023-04-25T12:17:17;101055.91;;;14.50;nan
23321;BME280;33376;51.306;4.752;2023-04-25T12:19:42;101040.16;;;13.80;nan
23321;BME280;33376;51.306;4.752;2023-04-25T12:22:22;101123.03;;;14.44;nan
23321;BME280;33376;51.306;4.752;2023-04-25T12:24:48;101054.44;;;14.46;nan
23321;BME280;33376;51.306;4.752;2023-04-25T12:27:14;101056.97;;;14.35;nan
23321;BME280;33376;51.306;4.752;2023-04-25T12:29:49;101043.78;;;14.20;nan
23321;BME280;33376;51.306;4.752;2023-04-25T12:32:15;101148.09;;;14.68;nan
23321;BME280;33376;51.306;4.752;2023-04-25T12:34:40;101144.50;;;14.02;nan
23321;BME280;33376;51.306;4.752;2023-04-25T12:37:05;101191.09;;;12.95;nan
23321;BME280;33376;51.306;4.752;2023-04-25T12:39:30;101282.47;;;12.80;nan
23321;BME280;33376;51.306;4.752;2023-04-25T12:41:56;101313.88;;;13.50;nan
23321;BME280;33376;51.306;4.752;2023-04-25T12:44:21;101273.09;;;13.78;nan
23321;BME280;33376;51.306;4.752;2023-04-25T12:46:46;101240.59;;;14.55;nan
23321;BME280;33376;51.306;4.752;2023-04-25T12:49:12;101194.38;;;14.00;nan
23321;BME280;33376;51.306;4.752;2023-04-25T12:51:37;101218.34;;;12.69;nan
23321;BME280;33376;51.306;4.752;2023-04-25T12:54:03;101257.91;;;13.06;nan
23321;BME280;33376;51.306;4.752;2023-04-25T12:56:29;101220.59;;;13.36;nan
23321;BME280;33376;51.306;4.752;2023-04-25T12:58:55;101241.06;;;13.06;nan
23321;BME280;33376;51.306;4.752;2023-04-25T13:01:20;101297.97;;;13.49;nan
23321;BME280;33376;51.306;4.752;2023-04-25T13:03:46;101353.47;;;13.11;nan
23321;BME280;33376;51.306;4.752;2023-04-25T13:06:11;101347.16;;;12.50;nan
23321;BME280;33376;51.306;4.752;2023-04-25T13:08:37;101356.03;;;12.01;nan
23321;BME280;33376;51.306;4.752;2023-04-25T13:11:03;101358.88;;;11.81;nan
23321;BME280;33376;51.306;4.752;2023-04-25T13:13:29;101396.19;;;12.12;nan
23321;BME280;33376;51.306;4.752;2023-04-25T13:15:54;101377.28;;;12.01;nan